Time;durP1;ratioP1;P1;durP2;ratioP2;P2;SDS_P1;SDS_P2;PMS_P1;PMS_P2;Temp;Humidity;BMP_temperature;BMP_pressure;BME280_temperature;BME280_humidity;BME280_pressure;Samples;Min_cycle;Max_cycle;Signal;HPM_P1;HPM_P2
2022/05/03 00:02:28;;;;;;;9.30;4.47;;;12.90;99.80;;;;;;4952493;29;20189;-71
2022/05/03 00:05:03;;;;;;;8.50;4.22;;;12.90;99.50;;;;;;4947914;28;20405;-71
2022/05/03 00:07:35;;;;;;;8.10;4.18;;;12.90;99.80;;;;;;4932746;29;20028;-71
2022/05/03 00:10:04;;;;;;;11.13;4.50;;;12.90;99.70;;;;;;4933285;29;20036;-72
2022/05/03 00:12:34;;;;;;;6.05;3.90;;;12.90;99.70;;;;;;4932987;29;20042;-70
2022/05/03 00:15:01;;;;;;;8.60;4.13;;;12.90;99.30;;;;;;4933150;29;20044;-72
2022/05/03 00:17:28;;;;;;;12.35;5.63;;;13.00;99.50;;;;;;4933299;29;20569;-71
2022/05/03 00:19:54;;;;;;;11.93;6.20;;;12.90;99.70;;;;;;4933295;29;20119;-68
2022/05/03 00:22:21;;;;;;;17.45;7.72;;;13.00;98.90;;;;;;4932976;29;20059;-70
2022/05/03 00:24:48;;;;;;;10.80;5.22;;;13.00;99.50;;;;;;4933171;29;20056;-71
2022/05/03 00:27:15;;;;;;;6.78;4.22;;;13.00;99.40;;;;;;4933258;29;20482;-72
2022/05/03 00:29:41;;;;;;;10.50;4.50;;;13.00;99.70;;;;;;4932826;29;20036;-72
2022/05/03 00:32:07;;;;;;;13.00;5.68;;;12.90;99.20;;;;;;4998993;28;20042;-72
2022/05/03 00:34:33;;;;;;;14.02;5.60;;;12.90;99.40;;;;;;5012527;28;20064;-71
2022/05/03 00:37:02;;;;;;;18.00;8.15;;;12.90;99.50;;;;;;5012434;28;20073;-71
2022/05/03 00:39:28;;;;;;;12.07;5.72;;;12.90;99.90;;;;;;5015923;28;20018;-68
2022/05/03 00:42:08;;;;;;;10.90;4.50;;;12.90;99.90;;;;;;5015245;28;20037;-72
2022/05/03 00:44:55;;;;;;;10.68;5.63;;;12.90;99.90;;;;;;5016003;28;20026;-70
2022/05/03 00:47:44;;;;;;;9.10;4.30;;;12.90;99.90;;;;;;5016247;28;20034;-69
2022/05/03 00:50:30;;;;;;;9.52;5.05;;;12.90;99.90;;;;;;5016231;28;20038;-71
2022/05/03 00:53:08;;;;;;;10.05;4.82;;;12.90;99.90;;;;;;5016405;28;20022;-68
2022/05/03 00:56:12;;;;;;;8.55;5.20;;;12.80;99.90;;;;;;5016228;28;20428;-71
2022/05/03 00:59:02;;;;;;;8.35;5.55;;;12.90;99.90;;;;;;5016148;28;20488;-71
2022/05/03 01:01:54;;;;;;;13.20;5.80;;;12.80;99.90;;;;;;5016105;28;20026;-71
2022/05/03 01:04:44;;;;;;;11.02;5.78;;;12.80;99.90;;;;;;5015776;28;20026;-72
2022/05/03 01:07:30;;;;;;;9.13;5.22;;;12.80;99.90;;;;;;5014560;28;20032;-70
2022/05/03 01:10:31;;;;;;;7.15;4.22;;;12.70;99.90;;;;;;5015700;28;20037;-70
2022/05/03 01:13:09;;;;;;;11.93;4.95;;;12.70;99.90;;;;;;4994293;28;20041;-72
2022/05/03 01:15:47;;;;;;;8.57;3.92;;;12.70;99.90;;;;;;4994017;28;20365;-72
2022/05/03 01:18:45;;;;;;;11.52;4.05;;;12.60;99.90;;;;;;4994048;28;20066;-69
2022/05/03 01:21:40;;;;;;;7.20;4.15;;;12.60;99.90;;;;;;4994079;28;20157;-71
2022/05/03 01:24:45;;;;;;;8.95;4.90;;;12.60;99.90;;;;;;4994102;28;20046;-71
2022/05/03 01:27:37;;;;;;;19.50;12.10;;;12.60;99.90;;;;;;4993911;28;20595;-70
2022/05/03 01:30:04;;;;;;;14.48;8.07;;;12.60;99.90;;;;;;4993648;28;20134;-72
2022/05/03 01:32:32;;;;;;;13.48;7.72;;;12.60;99.90;;;;;;4993655;28;20038;-68
2022/05/03 01:35:03;;;;;;;14.05;7.60;;;12.60;99.90;;;;;;4993843;28;20030;-71
2022/05/03 01:38:06;;;;;;;16.55;8.40;;;12.60;99.90;;;;;;4993433;28;20042;-71
2022/05/03 01:40:52;;;;;;;21.05;9.65;;;12.50;99.90;;;;;;4993742;28;20034;-71
2022/05/03 01:43:35;;;;;;;16.40;8.50;;;12.50;99.90;;;;;;4993605;28;20204;-71
2022/05/03 01:46:18;;;;;;;16.80;8.07;;;12.50;99.90;;;;;;4993362;28;20546;-71
2022/05/03 01:52:04;;;;;;;17.63;8.63;;;12.40;99.90;;;;;;5007180;28;20045;-71
2022/05/03 01:54:53;;;;;;;17.00;7.97;;;12.50;99.90;;;;;;5014877;28;20025;-71
2022/05/03 01:57:40;;;;;;;13.10;6.95;;;12.50;99.90;;;;;;5015095;28;20365;-72
2022/05/03 02:00:10;;;;;;;13.60;7.30;;;12.50;99.90;;;;;;5014880;28;20037;-72
2022/05/03 02:02:57;;;;;;;18.88;9.30;;;12.50;99.90;;;;;;5015371;28;20091;-72
2022/05/03 02:05:54;;;;;;;21.90;7.88;;;12.40;99.90;;;;;;4997662;28;20112;-68
2022/05/03 02:08:23;;;;;;;20.65;8.57;;;12.30;99.90;;;;;;5023779;28;20460;-72
2022/05/03 02:11:00;;;;;;;15.10;6.97;;;12.30;99.90;;;;;;5034628;28;20460;-71
2022/05/03 02:17:01;;;;;;;17.38;8.50;;;12.30;99.90;;;;;;5034208;28;20061;-71
2022/05/03 02:19:36;;;;;;;18.05;9.20;;;12.30;99.90;;;;;;4934955;29;20044;-72
2022/05/03 02:22:31;;;;;;;22.52;9.38;;;12.30;99.90;;;;;;4934798;29;20075;-72
2022/05/03 02:25:25;;;;;;;19.33;9.13;;;12.30;99.90;;;;;;4934989;29;20059;-72
2022/05/03 02:28:05;;;;;;;19.58;9.52;;;12.30;99.90;;;;;;4878379;29;20502;-72
2022/05/03 02:30:35;;;;;;;19.15;7.55;;;12.30;99.90;;;;;;4878160;29;20567;-70
2022/05/03 02:33:09;;;;;;;17.20;8.30;;;12.30;99.90;;;;;;4878387;29;20083;-71
2022/05/03 02:35:35;;;;;;;15.45;7.88;;;12.30;99.90;;;;;;4878366;29;20044;-72
2022/05/03 02:38:04;;;;;;;21.80;9.13;;;12.30;99.90;;;;;;4862451;29;20120;-70
2022/05/03 02:40:31;;;;;;;25.45;11.27;;;12.30;99.90;;;;;;4878131;29;20139;-71
2022/05/03 02:42:57;;;;;;;21.83;10.57;;;12.20;99.90;;;;;;4877991;29;20041;-70
2022/05/03 02:45:24;;;;;;;31.70;14.43;;;12.20;99.90;;;;;;4877661;29;20041;-71
2022/05/03 02:48:05;;;;;;;26.15;11.55;;;12.20;99.90;;;;;;4877944;29;20063;-69
2022/05/03 02:50:51;;;;;;;33.90;11.98;;;12.20;99.90;;;;;;4877843;29;20384;-69
2022/05/03 02:53:41;;;;;;;30.15;11.27;;;12.10;99.90;;;;;;4877858;29;20037;-71
2022/05/03 02:56:10;;;;;;;22.65;9.95;;;12.20;99.90;;;;;;4912527;28;20113;-72
2022/05/03 02:58:54;;;;;;;18.75;10.55;;;12.20;99.90;;;;;;4972594;28;20585;-71
2022/05/03 03:01:48;;;;;;;17.83;9.57;;;12.10;99.90;;;;;;4971002;28;20653;-71
2022/05/03 03:04:29;;;;;;;;;;;12.10;99.90;;;;;;4968073;28;20030;-71
2022/05/03 03:06:56;;;;;;;14.90;7.78;;;12.20;99.90;;;;;;5013822;28;19909;-71
2022/05/03 03:09:35;;;;;;;16.92;9.32;;;12.20;99.90;;;;;;5013759;28;20044;-72
2022/05/03 03:12:20;;;;;;;16.38;8.07;;;12.20;99.90;;;;;;5013578;28;20055;-72
2022/05/03 03:14:47;;;;;;;14.15;6.75;;;12.30;99.90;;;;;;5013716;28;20025;-72
2022/05/03 03:17:20;;;;;;;14.05;7.38;;;12.20;99.90;;;;;;5013556;28;20388;-70
2022/05/03 03:20:05;;;;;;;22.25;8.77;;;12.30;99.90;;;;;;5013088;28;20029;-71
2022/05/03 03:22:38;;;;;;;13.07;5.97;;;12.20;99.90;;;;;;5013130;28;20503;-71
2022/05/03 03:25:06;;;;;;;13.77;6.75;;;12.20;99.90;;;;;;5013483;28;20072;-72
2022/05/03 03:27:33;;;;;;;13.98;5.30;;;12.10;99.90;;;;;;5013274;28;20041;-71
2022/05/03 03:30:02;;;;;;;13.75;5.28;;;12.10;99.90;;;;;;5013449;28;20469;-68
2022/05/03 03:32:28;;;;;;;7.55;4.55;;;12.10;99.90;;;;;;5013362;28;20028;-71
2022/05/03 03:34:59;;;;;;;10.77;4.72;;;12.20;99.90;;;;;;5013429;28;20080;-72
2022/05/03 03:37:27;;;;;;;12.93;6.65;;;12.10;99.90;;;;;;5013009;28;20104;-71
2022/05/03 03:39:53;;;;;;;15.80;8.75;;;11.90;99.90;;;;;;5013190;28;20503;-66
2022/05/03 03:42:19;;;;;;;18.58;11.80;;;11.90;99.90;;;;;;5012101;28;20025;-72
2022/05/03 03:44:46;;;;;;;8.25;5.30;;;11.90;99.90;;;;;;5013143;28;20018;-72
2022/05/03 03:47:15;;;;;;;11.55;5.78;;;11.90;99.90;;;;;;5012794;28;20492;-72
2022/05/03 03:49:41;;;;;;;14.73;8.25;;;11.80;99.90;;;;;;5013154;28;20064;-65
2022/05/03 03:52:09;;;;;;;12.43;6.70;;;11.80;99.90;;;;;;5012984;28;20099;-72
2022/05/03 03:54:36;;;;;;;10.95;5.47;;;11.90;99.90;;;;;;5013035;28;20028;-72
2022/05/03 03:57:04;;;;;;;8.98;4.55;;;11.90;99.90;;;;;;5012914;28;20044;-69
2022/05/03 03:59:31;;;;;;;14.00;7.70;;;11.90;99.90;;;;;;5012798;28;20032;-72
2022/05/03 04:02:01;;;;;;;21.58;12.77;;;12.00;99.90;;;;;;5012947;28;20063;-71
2022/05/03 04:04:31;;;;;;;20.42;11.18;;;12.10;99.90;;;;;;5012803;28;20026;-69
2022/05/03 04:06:58;;;;;;;18.75;9.43;;;12.20;99.90;;;;;;5012779;28;20045;-71
2022/05/03 04:09:24;;;;;;;18.98;11.10;;;12.20;99.90;;;;;;5012879;28;20033;-71
2022/05/03 04:11:50;;;;;;;14.02;8.57;;;12.30;99.90;;;;;;5012884;28;20032;-72
2022/05/03 04:14:16;;;;;;;16.13;8.48;;;12.40;99.90;;;;;;5012377;28;20022;-72
2022/05/03 04:16:42;;;;;;;16.63;7.90;;;12.40;99.90;;;;;;5012526;28;20029;-72
2022/05/03 04:19:11;;;;;;;16.02;7.60;;;12.50;99.90;;;;;;5012817;28;20033;-70
2022/05/03 04:21:37;;;;;;;13.18;6.32;;;12.60;99.90;;;;;;5012527;28;20442;-72
2022/05/03 04:24:03;;;;;;;13.50;7.05;;;12.60;99.90;;;;;;5012739;28;20096;-72
2022/05/03 04:26:29;;;;;;;12.40;6.82;;;12.70;99.90;;;;;;5012600;28;20026;-71
2022/05/03 04:28:59;;;;;;;13.57;6.90;;;12.70;99.90;;;;;;5012244;28;20093;-72
2022/05/03 04:31:26;;;;;;;8.50;5.35;;;12.80;99.90;;;;;;5012693;28;20583;-72
2022/05/03 04:33:55;;;;;;;16.38;6.57;;;12.90;99.90;;;;;;5012599;28;20484;-72
2022/05/03 04:36:21;;;;;;;17.05;8.02;;;12.90;99.90;;;;;;5012739;28;20435;-72
2022/05/03 04:38:51;;;;;;;15.68;7.40;;;13.00;99.90;;;;;;5012444;28;20038;-71
2022/05/03 04:41:17;;;;;;;24.52;9.95;;;13.00;99.90;;;;;;5012631;28;20038;-70
2022/05/03 04:43:42;;;;;;;19.42;11.15;;;13.10;99.90;;;;;;5012338;28;20080;-71
2022/05/03 04:46:09;;;;;;;26.98;14.77;;;13.10;99.90;;;;;;5012260;28;20076;-70
2022/05/03 04:48:35;;;;;;;22.90;14.38;;;13.20;99.90;;;;;;5012554;28;20022;-70
2022/05/03 04:51:01;;;;;;;22.13;13.13;;;13.20;99.90;;;;;;5012502;28;20033;-71
2022/05/03 04:53:26;;;;;;;24.08;12.45;;;13.30;99.90;;;;;;5011992;28;20026;-72
2022/05/03 04:55:52;;;;;;;24.35;10.80;;;13.40;99.90;;;;;;5012421;28;20113;-71
2022/05/03 04:58:18;;;;;;;23.38;12.70;;;13.60;99.90;;;;;;5012241;28;20030;-68
2022/05/03 05:00:45;;;;;;;19.63;11.77;;;13.90;99.90;;;;;;5012210;28;20455;-72
2022/05/03 05:03:11;;;;;;;21.90;12.07;;;14.20;99.90;;;;;;5012269;28;20026;-71
2022/05/03 05:05:37;;;;;;;18.90;11.20;;;14.20;99.90;;;;;;5012222;28;20156;-72
2022/05/03 05:08:05;;;;;;;23.27;11.13;;;14.40;99.90;;;;;;5012194;28;20105;-69
2022/05/03 05:10:32;;;;;;;13.02;7.63;;;14.70;99.90;;;;;;5012249;28;20018;-70
2022/05/03 05:13:00;;;;;;;19.73;8.82;;;14.80;99.90;;;;;;5024524;28;20031;-71
2022/05/03 05:15:26;;;;;;;13.63;7.72;;;15.00;99.90;;;;;;5014047;28;20398;-72
2022/05/03 05:17:54;;;;;;;21.45;8.75;;;15.20;99.90;;;;;;5031901;28;20033;-70
2022/05/03 05:20:20;;;;;;;13.48;7.40;;;15.40;99.90;;;;;;5032037;28;20387;-72
2022/05/03 05:22:46;;;;;;;13.63;6.53;;;15.30;99.90;;;;;;5022561;28;20105;-70
2022/05/03 05:25:13;;;;;;;10.70;6.07;;;15.40;99.90;;;;;;5018994;28;20110;-72
2022/05/03 05:27:39;;;;;;;10.25;4.80;;;15.40;98.20;;;;;;5014766;28;20021;-68
2022/05/03 05:30:06;;;;;;;7.53;4.65;;;15.20;99.30;;;;;;5013867;28;20047;-72
2022/05/03 05:32:35;;;;;;;8.15;4.85;;;15.40;97.70;;;;;;5014991;28;20045;-69
2022/05/03 05:35:03;;;;;;;6.70;4.10;;;15.50;97.70;;;;;;5015423;28;20034;-72
2022/05/03 05:37:30;;;;;;;7.85;4.13;;;15.80;98.40;;;;;;5014534;28;20113;-72
2022/05/03 05:39:56;;;;;;;10.27;5.20;;;16.00;97.10;;;;;;5015302;28;20040;-68
2022/05/03 05:42:21;;;;;;;13.05;4.82;;;16.30;95.50;;;;;;5020548;28;20434;-71
2022/05/03 05:44:47;;;;;;;9.32;5.00;;;16.30;93.90;;;;;;5023498;28;20029;-71
2022/05/03 05:47:14;;;;;;;8.25;5.20;;;16.40;93.40;;;;;;4998174;28;20121;-71
2022/05/03 05:49:41;;;;;;;10.95;5.05;;;16.30;92.70;;;;;;5001595;28;20445;-69
2022/05/03 05:54:51;;;;;;;9.50;4.68;;;16.10;94.40;;;;;;4976680;28;20072;-70
2022/05/03 05:57:17;;;;;;;14.15;5.40;;;16.30;94.00;;;;;;4994766;28;20070;-71
2022/05/03 05:59:43;;;;;;;10.20;5.15;;;16.20;93.80;;;;;;4994517;28;20053;-69
2022/05/03 06:02:08;;;;;;;12.05;5.03;;;16.30;93.30;;;;;;4991811;28;20041;-66
2022/05/03 06:04:34;;;;;;;13.10;5.95;;;16.20;93.50;;;;;;5002843;28;20105;-65
2022/05/03 06:07:00;;;;;;;13.23;5.68;;;16.00;93.40;;;;;;5000634;28;20101;-72
2022/05/03 06:09:26;;;;;;;9.50;5.32;;;15.70;92.90;;;;;;4994495;28;20027;-69
2022/05/03 06:11:52;;;;;;;10.32;4.97;;;15.40;97.40;;;;;;4986301;28;20234;-65
2022/05/03 06:14:21;;;;;;;9.90;4.72;;;15.40;96.80;;;;;;4988550;28;20076;-69
2022/05/03 06:16:51;;;;;;;9.85;4.70;;;15.40;97.80;;;;;;4994211;28;20026;-69
2022/05/03 06:19:18;;;;;;;9.35;4.53;;;15.00;97.40;;;;;;4994109;28;20038;-70
2022/05/03 06:21:43;;;;;;;8.35;4.95;;;15.10;98.60;;;;;;4994397;28;20026;-69
2022/05/03 06:24:10;;;;;;;7.53;4.35;;;15.40;99.70;;;;;;4994243;28;20029;-65
2022/05/03 06:26:36;;;;;;;9.13;4.82;;;15.70;99.90;;;;;;4994139;28;20353;-70
2022/05/03 06:29:05;;;;;;;8.13;4.60;;;15.90;98.50;;;;;;4994100;28;20029;-70
2022/05/03 06:31:31;;;;;;;10.85;4.80;;;16.00;97.30;;;;;;4994086;28;20498;-69
2022/05/03 06:33:56;;;;;;;12.18;5.20;;;16.40;95.50;;;;;;4993525;28;20030;-70
2022/05/03 06:36:22;;;;;;;7.75;3.65;;;17.10;95.80;;;;;;4993325;28;20105;-70
2022/05/03 06:38:48;;;;;;;9.05;4.18;;;17.40;92.70;;;;;;4993723;28;20393;-69
2022/05/03 06:41:16;;;;;;;7.70;4.10;;;17.40;90.60;;;;;;4993793;28;20014;-70
2022/05/03 06:43:42;;;;;;;8.50;3.70;;;17.50;88.90;;;;;;4975959;28;20101;-70
2022/05/03 06:46:09;;;;;;;6.15;3.78;;;17.70;83.20;;;;;;5005373;28;20125;-72
2022/05/03 06:48:35;;;;;;;7.05;3.60;;;17.90;83.70;;;;;;5016584;28;20114;-72
2022/05/03 06:51:01;;;;;;;4.47;3.00;;;17.50;80.00;;;;;;5006909;28;20059;-72
2022/05/03 06:53:27;;;;;;;7.65;3.08;;;17.70;81.70;;;;;;5013834;28;20025;-72
2022/05/03 06:55:53;;;;;;;5.38;3.20;;;17.70;80.20;;;;;;5013808;28;20025;-66
2022/05/03 06:58:19;;;;;;;5.10;3.03;;;17.90;81.00;;;;;;5013360;28;20077;-71
2022/05/03 07:00:45;;;;;;;5.95;2.60;;;18.30;80.80;;;;;;5012656;28;20365;-71
2022/05/03 07:03:12;;;;;;;4.05;2.53;;;18.00;75.10;;;;;;4995822;28;20491;-70
2022/05/03 07:05:39;;;;;;;4.38;3.33;;;17.70;76.60;;;;;;5013356;28;20025;-72
2022/05/03 07:08:08;;;;;;;8.35;3.67;;;17.90;79.60;;;;;;5013502;28;20057;-72
2022/05/03 07:10:34;;;;;;;5.55;3.15;;;17.90;78.30;;;;;;5013377;28;20022;-73
2022/05/03 07:13:00;;;;;;;10.80;4.30;;;18.10;80.10;;;;;;5013467;28;20026;-73
2022/05/03 07:15:27;;;;;;;7.18;3.28;;;17.60;80.30;;;;;;5013697;28;20145;-72
2022/05/03 07:23:23;;;;;;;6.07;2.80;;;19.50;75.70;;;;;;5013499;28;20037;-73
2022/05/03 07:25:50;;;;;;;4.63;2.70;;;19.50;73.50;;;;;;5013385;28;20061;-71
2022/05/03 07:28:16;;;;;;;5.70;2.95;;;20.10;76.70;;;;;;5021331;28;20041;-73
2022/05/03 07:30:43;;;;;;;5.35;3.03;;;20.60;70.30;;;;;;5020533;28;20026;-67
2022/05/03 07:33:09;;;;;;;4.63;3.30;;;20.40;69.80;;;;;;5013018;28;20034;-70
2022/05/03 07:35:35;;;;;;;7.05;3.28;;;19.80;71.30;;;;;;5013302;28;20152;-72
2022/05/03 07:38:01;;;;;;;6.78;3.33;;;18.70;69.60;;;;;;5012974;28;20041;-72
2022/05/03 07:40:28;;;;;;;3.65;2.58;;;18.80;70.30;;;;;;5012957;28;20032;-70
2022/05/03 07:42:54;;;;;;;7.55;2.85;;;18.90;72.80;;;;;;5012836;28;20038;-70
2022/05/03 07:45:20;;;;;;;3.95;2.63;;;18.50;71.20;;;;;;5012686;28;20392;-71
2022/05/03 07:47:46;;;;;;;5.20;2.35;;;18.40;73.20;;;;;;5011902;28;20472;-71
2022/05/03 07:50:12;;;;;;;4.40;2.80;;;18.80;73.60;;;;;;5013025;28;20053;-68
2022/05/03 07:52:39;;;;;;;6.15;3.05;;;18.80;72.30;;;;;;5012164;28;20034;-70
2022/05/03 07:55:07;;;;;;;4.63;3.00;;;19.40;72.90;;;;;;5011613;28;20483;-72
2022/05/03 07:57:34;;;;;;;7.30;3.33;;;19.10;71.10;;;;;;5012369;28;20037;-72
2022/05/03 08:00:00;;;;;;;5.88;3.03;;;19.50;73.10;;;;;;5012571;28;20096;-68
2022/05/03 08:02:27;;;;;;;5.80;2.58;;;19.10;72.10;;;;;;5012748;28;20053;-73
2022/05/03 08:04:54;;;;;;;4.97;2.80;;;19.10;71.60;;;;;;5012786;28;20235;-71
2022/05/03 08:07:21;;;;;;;7.90;2.63;;;19.50;72.30;;;;;;5012883;28;20653;-72
2022/05/03 08:09:48;;;;;;;9.63;2.97;;;19.70;75.10;;;;;;5011925;28;20093;-72
2022/05/03 08:12:15;;;;;;;4.88;2.83;;;19.40;72.80;;;;;;5012380;28;20030;-73
2022/05/03 08:14:42;;;;;;;8.93;3.10;;;19.30;73.60;;;;;;5012660;28;20065;-72
2022/05/03 08:17:08;;;;;;;6.32;3.17;;;19.30;72.00;;;;;;5012467;28;20038;-71
2022/05/03 08:19:34;;;;;;;4.50;2.50;;;19.50;71.30;;;;;;5012796;28;20083;-72
2022/05/03 08:22:01;;;;;;;9.98;2.97;;;19.60;70.90;;;;;;5012553;28;20052;-72
2022/05/03 08:24:27;;;;;;;6.68;3.25;;;19.80;71.80;;;;;;5012727;28;20461;-72
2022/05/03 08:26:54;;;;;;;6.15;3.22;;;19.80;70.60;;;;;;5012534;28;20049;-71
2022/05/03 08:29:20;;;;;;;8.35;3.17;;;20.30;72.10;;;;;;5012430;28;20052;-72
2022/05/03 08:31:47;;;;;;;5.93;3.08;;;20.10;69.30;;;;;;5012118;28;20026;-73
2022/05/03 08:34:13;;;;;;;8.10;3.15;;;20.10;69.20;;;;;;5012200;28;20036;-72
2022/05/03 08:36:39;;;;;;;6.22;3.00;;;20.80;72.80;;;;;;5012186;28;20109;-72
2022/05/03 08:42:01;;;;;;;5.82;2.72;;;20.60;67.40;;;;;;5012931;28;20097;-72
2022/05/03 08:44:31;;;;;;;8.93;2.97;;;20.50;71.60;;;;;;5017757;28;20032;-73
2022/05/03 08:46:59;;;;;;;6.25;2.72;;;21.00;69.10;;;;;;4999143;28;20404;-73
2022/05/03 08:50:06;;;;;;;9.55;4.05;;;21.10;68.00;;;;;;5010635;28;20022;-72
2022/05/03 08:52:57;;;;;;;8.40;3.80;;;21.10;70.40;;;;;;5011889;28;20559;-66
2022/05/03 08:55:23;;;;;;;6.10;2.50;;;21.50;70.90;;;;;;5009998;28;20030;-70
2022/05/03 08:57:49;;;;;;;7.20;2.97;;;21.10;67.30;;;;;;5011948;28;20384;-71
2022/05/03 09:00:17;;;;;;;5.78;3.60;;;21.00;69.00;;;;;;5015070;28;20034;-71
2022/05/03 09:02:51;;;;;;;7.32;4.20;;;21.10;70.20;;;;;;5015435;28;20113;-67
2022/05/03 09:05:18;;;;;;;7.03;3.10;;;21.60;70.50;;;;;;5015373;28;20384;-72
2022/05/03 09:07:54;;;;;;;5.82;3.25;;;21.10;69.50;;;;;;5015430;28;20072;-72
2022/05/03 09:10:21;;;;;;;4.22;2.80;;;21.40;66.70;;;;;;5016057;28;20054;-65
2022/05/03 09:12:49;;;;;;;9.45;3.40;;;20.70;67.00;;;;;;5015586;28;20025;-72
2022/05/03 09:15:28;;;;;;;6.57;3.33;;;20.60;68.50;;;;;;5015382;28;20479;-71
2022/05/03 09:17:54;;;;;;;6.65;3.03;;;20.10;69.50;;;;;;5015217;28;20038;-70
2022/05/03 09:26:13;;;;;;;6.88;3.05;;;21.00;68.70;;;;;;5015358;28;20026;-73
2022/05/03 09:29:05;;;;;;;8.95;3.25;;;20.80;68.80;;;;;;5014929;28;20040;-72
2022/05/03 09:31:46;;;;;;;10.75;3.10;;;21.00;67.50;;;;;;5014414;28;20569;-73
2022/05/03 09:34:18;;;;;;;5.85;3.33;;;20.40;68.60;;;;;;5014170;28;20033;-73
2022/05/03 09:36:46;;;;;;;10.82;3.85;;;20.50;66.70;;;;;;5014021;28;20061;-73
2022/05/03 09:39:28;;;;;;;5.90;3.10;;;20.80;68.10;;;;;;5014042;28;20064;-72
2022/05/03 09:42:17;;;;;;;8.43;2.83;;;20.60;66.70;;;;;;5014427;28;20026;-72
2022/05/03 09:45:02;;;;;;;8.95;3.63;;;20.90;67.80;;;;;;5014406;28;20466;-69
2022/05/03 09:47:33;;;;;;;7.93;2.92;;;21.20;69.70;;;;;;5014028;28;20038;-73
2022/05/03 09:49:59;;;;;;;4.95;2.72;;;21.00;68.20;;;;;;5013709;28;20037;-72
2022/05/03 09:52:29;;;;;;;4.97;3.13;;;20.70;69.00;;;;;;5014139;28;20049;-73
2022/05/03 09:55:09;;;;;;;5.78;2.67;;;20.80;67.50;;;;;;5014187;28;20039;-73
2022/05/03 09:57:41;;;;;;;6.75;3.40;;;20.80;67.70;;;;;;5012757;28;20045;-70
2022/05/03 10:00:09;;;;;;;4.45;2.47;;;21.00;68.20;;;;;;5013722;28;20093;-73
2022/05/03 10:02:42;;;;;;;10.18;3.35;;;21.20;68.40;;;;;;5014084;28;20425;-73
2022/05/03 10:05:11;;;;;;;5.78;2.60;;;21.50;67.50;;;;;;5014019;28;20022;-72
2022/05/03 10:07:40;;;;;;;6.53;2.63;;;21.70;65.70;;;;;;5013920;28;20101;-72
2022/05/03 10:10:08;;;;;;;6.03;2.72;;;21.70;64.70;;;;;;5012625;28;20068;-69
2022/05/03 10:12:35;;;;;;;5.82;2.95;;;21.40;65.40;;;;;;5013397;28;20025;-70
2022/05/03 10:15:02;;;;;;;5.38;2.42;;;22.10;68.10;;;;;;5012709;28;20026;-72
2022/05/03 10:20:37;;;;;;;10.30;3.65;;;22.50;67.60;;;;;;4994043;28;20030;-72
2022/05/03 10:23:03;;;;;;;5.80;2.50;;;22.70;69.60;;;;;;4994504;28;20472;-70
2022/05/03 10:25:53;;;;;;;10.73;5.70;;;22.30;63.80;;;;;;5013643;28;20564;-73
2022/05/03 10:28:19;;;;;;;7.20;3.80;;;22.50;62.70;;;;;;4989231;28;20039;-71
2022/05/03 10:31:08;;;;;;;6.88;2.15;;;22.40;66.30;;;;;;5015886;28;20041;-72
2022/05/03 10:33:35;;;;;;;11.50;2.78;;;22.30;64.50;;;;;;5013299;28;20488;-71
2022/05/03 10:36:03;;;;;;;4.25;2.63;;;22.00;67.00;;;;;;5014015;28;20029;-72
2022/05/03 10:38:36;;;;;;;4.90;2.88;;;22.20;65.70;;;;;;5012508;28;20037;-72
2022/05/03 10:41:04;;;;;;;6.50;2.65;;;22.30;66.60;;;;;;5013124;28;20037;-73
2022/05/03 10:43:30;;;;;;;5.97;2.97;;;22.20;67.00;;;;;;5013404;28;20028;-73
2022/05/03 10:45:58;;;;;;;4.53;2.55;;;21.80;64.50;;;;;;5013697;28;20431;-76
2022/05/03 10:48:32;;;;;;;4.13;2.90;;;21.60;66.80;;;;;;5012993;28;20480;-72
2022/05/03 10:51:01;;;;;;;8.93;3.42;;;21.50;64.20;;;;;;5012808;28;20484;-73
2022/05/03 10:53:35;;;;;;;8.55;3.40;;;21.60;64.50;;;;;;5025237;28;20026;-73
2022/05/03 10:56:22;;;;;;;4.05;2.40;;;21.60;63.70;;;;;;5021093;28;20041;-73
2022/05/03 10:59:10;;;;;;;6.28;2.67;;;21.50;63.90;;;;;;5012160;28;20034;-71
2022/05/03 11:01:55;;;;;;;8.55;2.40;;;21.70;63.30;;;;;;5001331;28;20061;-73
2022/05/03 11:04:22;;;;;;;7.40;2.78;;;21.40;63.00;;;;;;4996455;28;20105;-73
2022/05/03 11:06:51;;;;;;;6.47;2.50;;;21.20;63.10;;;;;;4995368;28;20031;-72
2022/05/03 11:09:30;;;;;;;5.70;2.83;;;21.20;62.70;;;;;;4998187;28;20018;-71
2022/05/03 11:11:58;;;;;;;7.97;2.88;;;20.90;63.90;;;;;;4999686;28;20026;-73
2022/05/03 11:14:26;;;;;;;4.20;2.67;;;21.20;62.60;;;;;;5015604;28;20480;-73
2022/05/03 11:17:09;;;;;;;5.55;2.65;;;21.30;65.30;;;;;;5012475;28;20444;-72
2022/05/03 11:19:38;;;;;;;6.53;2.50;;;21.70;66.00;;;;;;5012527;28;20038;-72
2022/05/03 11:22:11;;;;;;;4.47;2.63;;;21.80;63.90;;;;;;5011713;28;20038;-72
2022/05/03 11:24:43;;;;;;;9.02;3.15;;;21.80;64.50;;;;;;5013072;28;20498;-73
2022/05/03 11:27:10;;;;;;;6.22;2.85;;;22.00;63.90;;;;;;5012503;28;20061;-72
2022/05/03 11:29:43;;;;;;;5.90;2.78;;;21.70;62.10;;;;;;5012829;28;20026;-73
2022/05/03 11:32:10;;;;;;;3.95;2.78;;;22.00;65.00;;;;;;5012137;28;20037;-72
2022/05/03 11:34:36;;;;;;;5.35;2.88;;;22.00;64.90;;;;;;5011070;28;20084;-72
2022/05/03 11:37:03;;;;;;;5.68;3.35;;;22.10;63.30;;;;;;5014250;28;20042;-70
2022/05/03 11:39:29;;;;;;;5.20;2.55;;;22.10;61.00;;;;;;5031869;28;20506;-70
2022/05/03 11:41:56;;;;;;;9.38;3.35;;;22.10;65.10;;;;;;5015197;28;20022;-73
2022/05/03 11:44:22;;;;;;;6.40;3.15;;;21.90;63.40;;;;;;5014483;28;20022;-73
2022/05/03 11:46:49;;;;;;;8.98;3.60;;;21.70;63.50;;;;;;5012038;28;20053;-72
2022/05/03 11:49:16;;;;;;;9.90;3.63;;;21.90;65.00;;;;;;5012017;28;20129;-72
2022/05/03 11:57:22;;;;;;;6.10;4.00;;;22.10;65.30;;;;;;5008422;28;20033;-72
2022/05/03 11:59:50;;;;;;;7.90;3.95;;;22.10;65.10;;;;;;4997979;28;20034;-70
2022/05/03 12:02:20;;;;;;;8.05;3.90;;;22.10;65.00;;;;;;4996164;28;20023;-75
2022/05/03 12:05:04;;;;;;;8.13;3.95;;;22.20;65.50;;;;;;4990838;28;20072;-66
2022/05/03 12:07:47;;;;;;;6.38;3.50;;;22.20;66.30;;;;;;5011488;28;20484;-75
2022/05/03 12:10:16;;;;;;;;;;;22.30;65.80;;;;;;5011150;28;20072;-72
2022/05/03 12:12:45;;;;;;;5.65;3.58;;;22.30;64.80;;;;;;5004026;28;20362;-69
2022/05/03 12:15:21;;;;;;;8.88;3.55;;;22.30;65.80;;;;;;4991174;28;20035;-72
2022/05/03 12:18:01;;;;;;;13.00;3.67;;;22.30;64.80;;;;;;5015524;28;20038;-71
2022/05/03 12:20:39;;;;;;;6.05;3.53;;;22.30;64.90;;;;;;5010766;28;20025;-70
2022/05/03 12:23:26;;;;;;;7.88;4.63;;;22.40;64.40;;;;;;4992528;28;20033;-72
2022/05/03 12:25:55;;;;;;;9.10;3.40;;;22.60;65.90;;;;;;5011790;28;20497;-72
2022/05/03 12:28:34;;;;;;;6.72;3.35;;;22.40;63.90;;;;;;5013023;28;20101;-71
2022/05/03 12:31:02;;;;;;;6.63;3.50;;;22.60;63.70;;;;;;5010544;28;20038;-70
2022/05/03 12:33:28;;;;;;;5.25;3.28;;;22.20;61.70;;;;;;5012013;28;20486;-72
2022/05/03 12:35:54;;;;;;;6.95;3.35;;;22.60;62.10;;;;;;5015338;28;20030;-72
2022/05/03 12:38:23;;;;;;;6.93;2.75;;;22.90;63.70;;;;;;5006150;28;20088;-72
2022/05/03 12:40:53;;;;;;;6.88;3.92;;;22.70;60.00;;;;;;5001759;28;20030;-69
2022/05/03 12:43:24;;;;;;;6.75;3.47;;;22.70;61.60;;;;;;5002719;28;20376;-66
2022/05/03 12:45:58;;;;;;;9.48;4.85;;;22.20;60.90;;;;;;5016625;28;20081;-65
2022/05/03 12:48:26;;;;;;;11.18;3.60;;;22.60;61.70;;;;;;5016725;28;20026;-72
2022/05/03 12:50:57;;;;;;;6.40;3.25;;;22.60;61.90;;;;;;5015761;28;20064;-72
2022/05/03 12:53:29;;;;;;;6.70;3.10;;;22.00;62.40;;;;;;5010473;28;20038;-69
2022/05/03 12:55:56;;;;;;;9.93;3.20;;;21.80;60.70;;;;;;4994341;28;20384;-71
2022/05/03 12:58:24;;;;;;;9.50;3.13;;;22.10;63.20;;;;;;4997249;28;20034;-69
2022/05/03 13:00:50;;;;;;;12.18;3.45;;;22.20;62.80;;;;;;4994476;28;20547;-70
2022/05/03 13:03:22;;;;;;;9.13;3.70;;;21.70;61.20;;;;;;5001144;28;20029;-66
2022/05/03 13:05:49;;;;;;;7.97;4.50;;;21.60;59.70;;;;;;5017251;28;20660;-69
2022/05/03 13:08:16;;;;;;;7.30;3.35;;;21.60;60.10;;;;;;5014459;28;20402;-72
2022/05/03 13:10:43;;;;;;;5.50;2.50;;;21.50;60.20;;;;;;5014643;28;20030;-72
2022/05/03 13:13:09;;;;;;;9.02;2.60;;;21.30;56.80;;;;;;5014448;28;20048;-70
2022/05/03 13:15:35;;;;;;;5.45;2.35;;;21.30;57.60;;;;;;5014470;28;20014;-71
2022/05/03 13:18:01;;;;;;;4.25;2.25;;;21.30;57.20;;;;;;5014576;28;20113;-72
2022/05/03 13:20:27;;;;;;;4.03;2.60;;;21.00;56.20;;;;;;5014747;28;20379;-72
2022/05/03 13:22:54;;;;;;;4.72;2.40;;;20.90;56.80;;;;;;5014505;28;20029;-69
2022/05/03 13:25:22;;;;;;;3.40;2.40;;;21.00;56.20;;;;;;5011724;28;20028;-70
2022/05/03 13:27:48;;;;;;;3.75;2.40;;;20.80;55.90;;;;;;5018752;28;20084;-66
2022/05/03 13:30:15;;;;;;;4.72;2.60;;;20.80;56.50;;;;;;5018123;28;20508;-70
2022/05/03 13:32:41;;;;;;;13.07;4.72;;;20.80;57.00;;;;;;5014386;28;20050;-72
2022/05/03 13:35:08;;;;;;;9.55;3.20;;;20.70;57.00;;;;;;5013682;28;20041;-71
2022/05/03 13:40:29;;;;;;;9.73;3.47;;;20.80;58.70;;;;;;4991285;28;20038;-72